createdAt,value
2022-07-31T00:02:34.538Z,61.10
2022-07-31T00:05:23.211Z,60.90
2022-07-31T00:08:11.693Z,61.00
2022-07-31T00:11:00.335Z,61.10
2022-07-31T00:13:56.435Z,61.20
2022-07-31T00:16:48.065Z,61.70
2022-07-31T00:19:37.266Z,62.40
2022-07-31T00:22:25.743Z,62.90
2022-07-31T00:25:15.374Z,63.30
2022-07-31T00:28:03.920Z,63.40
2022-07-31T00:30:52.506Z,63.50
2022-07-31T00:33:42.626Z,64.00
2022-07-31T00:36:31.146Z,64.70
2022-07-31T00:39:21.288Z,63.70
2022-07-31T00:42:18.296Z,62.90
2022-07-31T00:45:08.503Z,63.20
2022-07-31T00:47:57.742Z,62.90
2022-07-31T00:50:47.596Z,63.30
2022-07-31T00:53:36.218Z,63.50
2022-07-31T00:56:25.150Z,63.50
2022-07-31T00:59:13.947Z,63.70
2022-07-31T01:02:02.403Z,62.70
2022-07-31T01:04:51.034Z,62.40
2022-07-31T01:07:40.840Z,62.70
2022-07-31T01:10:44.583Z,63.90
2022-07-31T01:13:36.599Z,63.80
2022-07-31T01:16:26.534Z,63.80
2022-07-31T01:19:24.240Z,63.90
2022-07-31T01:22:53.746Z,63.70
2022-07-31T01:25:54.147Z,63.60
2022-07-31T01:29:02.091Z,63.60
2022-07-31T01:31:55.045Z,64.10
2022-07-31T01:34:47.121Z,63.70
2022-07-31T01:37:40.615Z,63.70
2022-07-31T01:40:33.584Z,64.10
2022-07-31T01:43:25.786Z,64.30
2022-07-31T01:46:16.984Z,64.90
2022-07-31T01:49:05.621Z,65.60
2022-07-31T01:51:54.962Z,66.40
2022-07-31T01:54:54.310Z,66.00
2022-07-31T01:57:43.011Z,66.10
2022-07-31T02:00:34.465Z,66.60
2022-07-31T02:03:44.297Z,67.60
2022-07-31T02:06:34.631Z,68.10
2022-07-31T02:09:23.508Z,67.70
2022-07-31T02:12:12.321Z,68.10
2022-07-31T02:15:01.038Z,68.20
2022-07-31T02:17:49.840Z,68.50
2022-07-31T02:20:45.485Z,69.00
2022-07-31T02:23:34.332Z,70.30
2022-07-31T02:26:22.851Z,70.00
2022-07-31T02:29:20.077Z,70.30
2022-07-31T02:32:09.633Z,71.40
2022-07-31T02:34:58.267Z,71.90
2022-07-31T02:37:49.670Z,72.60
2022-07-31T02:40:38.472Z,73.10
2022-07-31T02:43:29.712Z,73.40
2022-07-31T02:46:19.825Z,74.00
2022-07-31T02:49:08.473Z,74.00
2022-07-31T02:51:57.369Z,74.70
2022-07-31T02:54:48.544Z,75.00
2022-07-31T02:57:37.187Z,75.50
2022-07-31T03:00:30.824Z,75.60
2022-07-31T03:03:19.955Z,75.90
2022-07-31T03:06:08.595Z,76.40
2022-07-31T03:08:59.690Z,76.10
2022-07-31T03:11:49.657Z,76.70
2022-07-31T03:14:38.253Z,77.10
2022-07-31T03:17:38.034Z,77.50
2022-07-31T03:20:27.555Z,77.10
2022-07-31T03:23:16.041Z,77.60
2022-07-31T03:26:16.047Z,77.60
2022-07-31T03:29:06.037Z,78.20
2022-07-31T03:32:14.767Z,79.20
2022-07-31T03:35:03.460Z,78.80
2022-07-31T03:37:52.118Z,78.50
2022-07-31T03:40:40.647Z,78.80
2022-07-31T03:43:30.121Z,79.00
2022-07-31T03:46:34.454Z,79.10
2022-07-31T03:49:23.114Z,79.60
2022-07-31T03:52:12.802Z,80.00
2022-07-31T03:55:01.590Z,80.00
2022-07-31T03:57:50.246Z,79.90
2022-07-31T04:00:38.938Z,80.30
2022-07-31T04:03:31.869Z,80.30
2022-07-31T04:06:40.737Z,81.20
2022-07-31T04:09:29.692Z,81.10
2022-07-31T04:12:19.035Z,81.10
2022-07-31T04:15:08.685Z,81.30
2022-07-31T04:17:58.344Z,81.40
2022-07-31T04:20:54.569Z,81.50
2022-07-31T04:23:49.564Z,81.70
2022-07-31T04:26:57.829Z,81.70
2022-07-31T04:29:53.549Z,82.10
2022-07-31T04:32:42.229Z,81.70
2022-07-31T04:35:36.222Z,82.10
2022-07-31T04:38:26.105Z,82.50
2022-07-31T04:41:14.669Z,82.80
2022-07-31T04:44:03.158Z,82.90
2022-07-31T04:47:06.403Z,82.90
2022-07-31T04:49:57.448Z,83.40
2022-07-31T04:52:48.661Z,83.00
2022-07-31T04:55:38.609Z,83.20
2022-07-31T04:58:27.714Z,83.40
2022-07-31T05:01:16.394Z,83.10
2022-07-31T05:04:05.536Z,82.70
2022-07-31T05:06:54.725Z,82.90
2022-07-31T05:09:44.009Z,82.50
2022-07-31T05:12:33.920Z,82.60
2022-07-31T05:15:22.397Z,82.50
2022-07-31T05:18:12.836Z,82.40
2022-07-31T05:21:32.847Z,82.40
2022-07-31T05:24:44.339Z,82.10
2022-07-31T05:27:38.935Z,82.20
2022-07-31T05:30:30.489Z,82.20
2022-07-31T05:33:19.563Z,81.90
2022-07-31T05:36:08.795Z,82.00
2022-07-31T05:38:57.332Z,81.70
2022-07-31T05:41:54.623Z,81.60
2022-07-31T05:44:59.087Z,82.00
2022-07-31T05:47:47.728Z,82.10
2022-07-31T05:50:36.502Z,82.20
2022-07-31T05:53:25.343Z,82.50
2022-07-31T05:56:52.447Z,82.70
2022-07-31T05:59:47.094Z,82.40
2022-07-31T06:02:37.069Z,82.40
2022-07-31T06:05:38.717Z,83.00
2022-07-31T06:08:27.251Z,82.80
2022-07-31T06:11:18.246Z,83.30
2022-07-31T06:14:06.787Z,83.40
2022-07-31T06:17:15.303Z,83.20
2022-07-31T06:20:05.997Z,83.10
2022-07-31T06:22:55.155Z,83.50
2022-07-31T06:25:45.864Z,84.30
2022-07-31T06:28:47.579Z,83.50
2022-07-31T06:31:38.819Z,83.80
2022-07-31T06:34:27.366Z,83.30
2022-07-31T06:37:17.331Z,83.40
2022-07-31T06:40:07.631Z,83.90
2022-07-31T06:43:07.350Z,84.10
2022-07-31T06:46:14.869Z,84.30
2022-07-31T06:49:29.652Z,84.30
2022-07-31T06:52:19.603Z,84.20
2022-07-31T06:55:09.275Z,85.10
2022-07-31T06:57:58.009Z,85.40
2022-07-31T07:00:46.540Z,85.40
2022-07-31T07:03:35.083Z,85.90
2022-07-31T07:06:23.943Z,86.90
2022-07-31T07:09:13.783Z,86.30
2022-07-31T07:12:02.464Z,87.20
2022-07-31T07:14:51.130Z,83.60
2022-07-31T07:17:39.693Z,82.40
2022-07-31T07:20:35.193Z,80.50
2022-07-31T07:23:23.993Z,79.30
2022-07-31T07:26:32.708Z,78.40
2022-07-31T07:29:24.399Z,77.80
2022-07-31T07:32:14.721Z,77.20
2022-07-31T07:35:04.624Z,76.80
2022-07-31T07:38:09.321Z,77.10
2022-07-31T07:40:58.626Z,74.60
2022-07-31T07:43:48.706Z,74.70
2022-07-31T07:46:41.922Z,72.60
2022-07-31T07:49:35.990Z,70.30
2022-07-31T07:53:01.268Z,72.10
2022-07-31T07:56:12.383Z,73.40
2022-07-31T07:59:28.244Z,73.40
2022-07-31T08:03:47.344Z,72.20
2022-07-31T08:06:01.595Z,69.40
2022-07-31T08:08:50.179Z,67.70
2022-07-31T08:11:57.518Z,66.60
2022-07-31T08:15:07.926Z,67.70
2022-07-31T08:18:14.685Z,66.80
2022-07-31T08:21:03.206Z,65.60
2022-07-31T08:23:52.694Z,67.50
2022-07-31T08:26:59.673Z,65.50
2022-07-31T08:29:49.847Z,65.40
2022-07-31T08:32:42.096Z,64.60
2022-07-31T08:35:38.130Z,63.70
2022-07-31T08:38:28.686Z,62.90
2022-07-31T08:41:55.189Z,62.60
2022-07-31T08:44:45.315Z,59.70
2022-07-31T08:47:37.158Z,59.60
2022-07-31T08:50:32.893Z,56.50
2022-07-31T08:53:23.591Z,56.70
2022-07-31T08:56:18.899Z,55.80
2022-07-31T08:59:08.140Z,54.60
2022-07-31T09:01:58.453Z,55.40
2022-07-31T09:04:52.329Z,52.40
2022-07-31T09:07:43.925Z,51.00
2022-07-31T09:10:32.543Z,49.90
2022-07-31T09:13:21.078Z,50.90
2022-07-31T09:16:12.550Z,50.80
2022-07-31T09:19:03.844Z,51.50
2022-07-31T09:22:22.275Z,50.40
2022-07-31T09:25:16.369Z,49.20
2022-07-31T09:28:06.445Z,50.40
2022-07-31T09:30:57.151Z,49.80
2022-07-31T09:33:58.145Z,50.40
2022-07-31T09:36:55.618Z,48.80
2022-07-31T09:40:21.291Z,49.70
2022-07-31T09:43:51.580Z,50.30
2022-07-31T09:46:40.966Z,50.10
2022-07-31T09:49:33.722Z,50.00
2022-07-31T09:52:22.405Z,50.10
2022-07-31T09:55:16.313Z,49.10
2022-07-31T09:58:08.381Z,48.00
2022-07-31T10:01:02.574Z,49.20
2022-07-31T10:03:52.665Z,48.70
2022-07-31T10:06:41.258Z,48.10
2022-07-31T10:09:30.215Z,48.90
2022-07-31T10:12:30.345Z,46.70
2022-07-31T10:15:21.164Z,47.10
2022-07-31T10:18:35.801Z,47.70
2022-07-31T10:22:02.420Z,48.70
2022-07-31T10:24:54.235Z,47.90
2022-07-31T10:27:42.929Z,47.10
2022-07-31T10:30:35.836Z,48.20
2022-07-31T10:33:45.358Z,47.30
2022-07-31T10:36:52.576Z,48.20
2022-07-31T10:39:57.705Z,47.40
2022-07-31T10:43:01.733Z,47.50
2022-07-31T10:45:55.026Z,46.00
2022-07-31T10:49:08.562Z,46.80
2022-07-31T10:52:16.318Z,46.30
2022-07-31T10:55:27.058Z,46.40
2022-07-31T10:58:35.854Z,46.30
2022-07-31T11:01:53.045Z,46.50
2022-07-31T11:05:13.219Z,45.70
2022-07-31T11:08:24.855Z,46.80
2022-07-31T11:11:25.934Z,46.60
2022-07-31T11:14:34.462Z,46.70
2022-07-31T11:18:20.188Z,45.60
2022-07-31T11:21:22.723Z,45.80
2022-07-31T11:24:16.521Z,44.00
2022-07-31T11:27:05.670Z,44.40
2022-07-31T11:30:01.945Z,45.00
2022-07-31T11:32:54.210Z,44.10
2022-07-31T11:35:42.823Z,43.80
2022-07-31T11:38:31.597Z,44.10
2022-07-31T11:41:22.845Z,42.70
2022-07-31T11:44:11.885Z,43.90
2022-07-31T11:47:00.462Z,44.40
2022-07-31T11:49:50.424Z,42.30
2022-07-31T11:52:43.345Z,42.30
2022-07-31T11:55:32.118Z,41.80
2022-07-31T11:58:22.732Z,42.10
2022-07-31T12:01:11.278Z,42.20
2022-07-31T12:04:08.343Z,42.30
2022-07-31T12:06:59.353Z,42.40
2022-07-31T12:10:02.709Z,42.70
2022-07-31T12:12:51.809Z,42.60
2022-07-31T12:15:40.246Z,43.10
2022-07-31T12:18:30.707Z,42.70
2022-07-31T12:21:19.769Z,42.20
2022-07-31T12:24:13.423Z,42.20
2022-07-31T12:27:02.915Z,42.00
2022-07-31T12:29:51.553Z,42.80
2022-07-31T12:32:40.059Z,42.40
2022-07-31T12:35:55.694Z,42.40
2022-07-31T12:38:48.155Z,42.60
2022-07-31T12:41:44.070Z,42.90
2022-07-31T12:44:32.607Z,42.70
2022-07-31T12:47:22.358Z,43.00
2022-07-31T12:50:14.908Z,43.50
2022-07-31T12:53:04.677Z,43.10
2022-07-31T12:55:53.200Z,43.90
2022-07-31T12:58:43.035Z,43.40
2022-07-31T13:01:31.669Z,42.60
2022-07-31T13:04:20.151Z,41.60
2022-07-31T13:07:09.554Z,41.10
2022-07-31T13:10:17.557Z,40.90
2022-07-31T13:13:06.581Z,41.00
2022-07-31T13:15:56.485Z,41.20
2022-07-31T13:18:45.276Z,41.00
2022-07-31T13:21:42.491Z,41.30
2022-07-31T13:24:38.199Z,40.90
2022-07-31T13:27:26.718Z,40.50
2022-07-31T13:30:15.366Z,40.60
2022-07-31T13:33:05.380Z,40.30
2022-07-31T13:35:54.069Z,40.00
2022-07-31T13:38:42.565Z,40.10
2022-07-31T13:41:34.150Z,39.70
2022-07-31T13:44:22.636Z,39.70
2022-07-31T13:47:11.219Z,38.50
2022-07-31T13:50:01.118Z,38.80
2022-07-31T13:52:49.628Z,37.70
2022-07-31T13:55:38.359Z,36.80
2022-07-31T13:58:28.142Z,36.70
2022-07-31T14:01:16.745Z,36.80
2022-07-31T14:04:06.067Z,36.90
2022-07-31T14:06:55.946Z,36.30
2022-07-31T14:09:55.023Z,36.20
2022-07-31T14:12:43.872Z,36.80
2022-07-31T14:15:32.419Z,36.90
2022-07-31T14:18:22.297Z,35.80
2022-07-31T14:21:10.840Z,36.70
2022-07-31T14:24:00.706Z,36.90
2022-07-31T14:26:49.227Z,36.90
2022-07-31T14:29:37.850Z,37.00
2022-07-31T14:32:26.384Z,36.90
2022-07-31T14:35:14.856Z,36.90
2022-07-31T14:38:04.417Z,37.00
2022-07-31T14:40:54.422Z,36.80
2022-07-31T14:43:42.912Z,36.70
2022-07-31T14:46:31.402Z,37.00
2022-07-31T14:49:20.098Z,36.70
2022-07-31T14:52:08.776Z,36.90
2022-07-31T14:54:58.709Z,37.00
2022-07-31T14:57:48.573Z,37.00
2022-07-31T15:00:37.124Z,36.60
2022-07-31T15:03:25.693Z,36.20
2022-07-31T15:06:40.036Z,36.30
2022-07-31T15:09:25.596Z,36.30
2022-07-31T15:12:16.759Z,35.60
2022-07-31T15:15:08.260Z,36.20
2022-07-31T15:17:56.826Z,35.50
2022-07-31T15:20:45.350Z,35.40
2022-07-31T15:23:35.816Z,35.20
2022-07-31T15:26:24.556Z,35.20
2022-07-31T15:29:13.027Z,34.90
2022-07-31T15:32:02.828Z,34.90
2022-07-31T15:34:51.434Z,34.80
2022-07-31T15:37:40.754Z,35.00
2022-07-31T15:40:29.229Z,35.00
2022-07-31T15:43:17.760Z,34.80
2022-07-31T15:46:07.715Z,35.10
2022-07-31T15:48:57.583Z,33.80
2022-07-31T15:51:46.118Z,33.40
2022-07-31T15:54:34.594Z,33.20
2022-07-31T15:57:23.122Z,33.60
2022-07-31T16:00:14.069Z,33.50
2022-07-31T16:03:04.566Z,34.20
2022-07-31T16:05:56.273Z,33.20
2022-07-31T16:08:44.994Z,33.00
2022-07-31T16:12:04.230Z,33.00
2022-07-31T16:14:41.985Z,32.90
2022-07-31T16:17:37.827Z,33.00
2022-07-31T16:20:27.149Z,32.60
2022-07-31T16:23:17.183Z,32.50
2022-07-31T16:26:05.772Z,32.70
2022-07-31T16:28:54.444Z,33.00
2022-07-31T16:31:42.967Z,32.90
2022-07-31T16:34:31.496Z,32.70
2022-07-31T16:37:20.001Z,32.30
2022-07-31T16:40:32.180Z,32.30
2022-07-31T16:43:49.334Z,32.60
2022-07-31T16:46:29.173Z,32.40
2022-07-31T16:49:35.212Z,32.70
2022-07-31T16:52:26.180Z,32.50
2022-07-31T16:55:14.716Z,33.30
2022-07-31T16:58:04.605Z,33.40
2022-07-31T17:00:53.202Z,33.40
2022-07-31T17:04:01.196Z,33.30
2022-07-31T17:06:50.459Z,33.40
2022-07-31T17:09:38.954Z,33.10
2022-07-31T17:12:27.572Z,33.70
2022-07-31T17:15:17.485Z,33.70
2022-07-31T17:18:06.139Z,33.90
2022-07-31T17:20:55.997Z,34.10
2022-07-31T17:23:50.984Z,34.20
2022-07-31T17:26:39.772Z,34.30
2022-07-31T17:29:28.205Z,34.60
2022-07-31T17:32:18.144Z,34.90
2022-07-31T17:35:08.226Z,35.00
2022-07-31T17:38:02.158Z,35.10
2022-07-31T17:40:51.161Z,35.30
2022-07-31T17:43:50.131Z,35.30
2022-07-31T17:46:48.036Z,35.50
2022-07-31T17:49:38.767Z,35.50
2022-07-31T17:52:27.470Z,35.30
2022-07-31T17:55:15.944Z,35.30
2022-07-31T17:58:04.403Z,35.40
2022-07-31T18:00:53.898Z,35.30
2022-07-31T18:03:42.414Z,35.30
2022-07-31T18:06:32.293Z,35.00
2022-07-31T18:09:23.197Z,35.20
2022-07-31T18:12:15.412Z,35.30
2022-07-31T18:15:05.122Z,35.50
2022-07-31T18:17:54.322Z,35.60
2022-07-31T18:20:45.134Z,35.60
2022-07-31T18:23:34.950Z,35.80
2022-07-31T18:26:23.523Z,35.90
2022-07-31T18:29:12.059Z,36.00
2022-07-31T18:32:00.532Z,36.20
2022-07-31T18:34:49.071Z,36.10
2022-07-31T18:37:37.680Z,36.30
2022-07-31T18:40:27.569Z,36.30
2022-07-31T18:43:16.108Z,36.50
2022-07-31T18:46:04.858Z,36.50
2022-07-31T18:48:55.909Z,36.70
2022-07-31T18:51:45.368Z,37.20
2022-07-31T18:54:34.113Z,37.40
2022-07-31T18:57:24.184Z,37.90
2022-07-31T19:00:13.543Z,38.30
2022-07-31T19:03:02.035Z,38.70
2022-07-31T19:05:52.721Z,39.00
2022-07-31T19:08:41.225Z,39.30
2022-07-31T19:11:29.771Z,39.50
2022-07-31T19:14:21.721Z,39.90
2022-07-31T19:17:10.255Z,40.30
2022-07-31T19:20:01.421Z,40.40
2022-07-31T19:22:50.919Z,40.90
2022-07-31T19:26:02.806Z,41.10
2022-07-31T19:28:48.095Z,41.20
2022-07-31T19:31:38.500Z,41.60
2022-07-31T19:34:27.034Z,42.00
2022-07-31T19:37:17.529Z,42.30
2022-07-31T19:40:09.060Z,42.50
2022-07-31T19:42:59.572Z,42.80
2022-07-31T19:45:58.816Z,43.10
2022-07-31T19:48:58.199Z,43.20
2022-07-31T19:51:46.863Z,43.20
2022-07-31T19:54:35.358Z,43.10
2022-07-31T19:57:24.063Z,43.40
2022-07-31T20:00:13.856Z,43.80
2022-07-31T20:03:02.401Z,44.50
2022-07-31T20:05:52.404Z,44.60
2022-07-31T20:08:40.939Z,45.80
2022-07-31T20:11:29.562Z,45.50
2022-07-31T20:14:17.987Z,45.40
2022-07-31T20:17:06.595Z,45.70
2022-07-31T20:20:14.901Z,45.50
2022-07-31T20:23:05.171Z,45.70
2022-07-31T20:25:53.837Z,46.20
2022-07-31T20:28:43.972Z,46.40
2022-07-31T20:31:33.085Z,46.50
2022-07-31T20:34:22.439Z,46.80
2022-07-31T20:37:10.944Z,46.80
2022-07-31T20:40:00.858Z,46.90
2022-07-31T20:42:49.813Z,47.40
2022-07-31T20:45:41.553Z,47.20
2022-07-31T20:48:32.454Z,47.50
2022-07-31T20:51:23.231Z,47.70
2022-07-31T20:54:11.760Z,47.80
2022-07-31T20:57:01.593Z,48.00
2022-07-31T20:59:50.182Z,48.50
2022-07-31T21:02:38.697Z,48.40
2022-07-31T21:05:29.575Z,48.70
2022-07-31T21:08:18.267Z,49.30
2022-07-31T21:11:06.785Z,49.20
2022-07-31T21:13:56.686Z,49.60
2022-07-31T21:16:45.209Z,50.10
2022-07-31T21:19:33.656Z,50.10
2022-07-31T21:22:22.218Z,50.50
2022-07-31T21:25:11.832Z,50.60
2022-07-31T21:28:00.709Z,51.20
2022-07-31T21:30:51.053Z,51.30
2022-07-31T21:33:40.396Z,51.80
2022-07-31T21:36:28.982Z,51.80
2022-07-31T21:39:19.585Z,52.00
2022-07-31T21:42:09.619Z,52.10
2022-07-31T21:44:58.922Z,52.50
2022-07-31T21:47:52.749Z,52.80
2022-07-31T21:50:43.362Z,53.40
2022-07-31T21:53:31.788Z,53.20
2022-07-31T21:56:20.256Z,53.50
2022-07-31T21:59:08.724Z,53.80
2022-07-31T22:02:08.290Z,53.90
2022-07-31T22:05:15.629Z,54.30
2022-07-31T22:08:04.335Z,54.60
2022-07-31T22:10:53.187Z,54.60
2022-07-31T22:13:41.702Z,55.00
2022-07-31T22:16:30.698Z,55.30
2022-07-31T22:19:19.809Z,55.60
2022-07-31T22:22:11.115Z,55.60
2022-07-31T22:25:00.207Z,56.30
2022-07-31T22:27:56.375Z,56.60
2022-07-31T22:30:45.676Z,56.70
2022-07-31T22:33:34.442Z,56.70
2022-07-31T22:36:22.989Z,56.90
2022-07-31T22:39:12.908Z,57.20
2022-07-31T22:42:01.998Z,57.80
2022-07-31T22:44:50.942Z,58.50
2022-07-31T22:47:39.815Z,58.00
2022-07-31T22:50:28.727Z,58.60
2022-07-31T22:53:17.715Z,58.50
2022-07-31T22:56:07.616Z,58.50
2022-07-31T22:58:56.947Z,59.20
2022-07-31T23:01:45.443Z,59.10
2022-07-31T23:04:34.054Z,59.40
2022-07-31T23:07:22.556Z,59.60
2022-07-31T23:10:12.695Z,59.90
2022-07-31T23:13:02.611Z,60.00
2022-07-31T23:15:51.171Z,60.90
2022-07-31T23:18:39.661Z,60.90
2022-07-31T23:21:28.270Z,61.10
2022-07-31T23:24:16.953Z,61.40
2022-07-31T23:27:08.315Z,61.70
2022-07-31T23:29:58.706Z,62.10
2022-07-31T23:32:47.211Z,63.00
2022-07-31T23:35:35.648Z,62.90
2022-07-31T23:38:24.109Z,63.60
2022-07-31T23:41:12.720Z,64.40
2022-07-31T23:44:00.231Z,65.50
2022-07-31T23:46:50.028Z,66.30
2022-07-31T23:49:38.577Z,67.00
2022-07-31T23:52:27.071Z,67.60
2022-07-31T23:55:15.489Z,67.50
2022-07-31T23:58:04.085Z,67.80
